createdAt,value
2018-09-01T00:01:26.819Z,25.33
2018-09-01T00:03:55.314Z,26.83
2018-09-01T00:06:23.772Z,31.60
2018-09-01T00:08:52.218Z,25.10
2018-09-01T00:11:20.694Z,29.43
2018-09-01T00:13:49.121Z,26.00
2018-09-01T00:16:17.555Z,28.47
2018-09-01T00:18:46.048Z,30.07
2018-09-01T00:21:14.550Z,25.57
2018-09-01T00:23:42.970Z,28.47
2018-09-01T00:26:11.415Z,27.00
2018-09-01T00:28:39.844Z,28.37
2018-09-01T00:31:08.269Z,28.57
2018-09-01T00:33:36.716Z,29.30
2018-09-01T00:36:05.523Z,24.80
2018-09-01T00:38:39.365Z,25.80
2018-09-01T00:41:07.838Z,34.57
2018-09-01T00:43:36.370Z,30.57
2018-09-01T00:46:05.023Z,30.33
2018-09-01T00:48:33.830Z,34.60
2018-09-01T00:51:02.511Z,30.83
2018-09-01T00:53:31.221Z,33.77
2018-09-01T00:55:59.839Z,29.20
2018-09-01T00:58:28.534Z,35.20
2018-09-01T01:00:59.076Z,29.20
2018-09-01T01:03:27.764Z,28.63
2018-09-01T01:05:56.329Z,32.10
2018-09-01T01:08:25.001Z,25.37
2018-09-01T01:10:53.895Z,26.47
2018-09-01T01:13:22.721Z,26.47
2018-09-01T01:15:51.279Z,24.37
2018-09-01T01:18:19.957Z,23.33
2018-09-01T01:20:48.663Z,27.57
2018-09-01T01:23:17.321Z,26.70
2018-09-01T01:25:46.138Z,30.00
2018-09-01T01:28:14.912Z,28.93
2018-09-01T01:30:43.509Z,33.43
2018-09-01T01:33:12.127Z,31.23
2018-09-01T01:35:40.653Z,34.30
2018-09-01T01:38:09.247Z,32.23
2018-09-01T01:40:37.777Z,32.77
2018-09-01T01:43:06.465Z,31.90
2018-09-01T01:45:35.035Z,27.73
2018-09-01T01:48:03.537Z,36.77
2018-09-01T01:50:32.158Z,28.57
2018-09-01T01:53:00.767Z,31.23
2018-09-01T01:55:29.284Z,28.50
2018-09-01T01:57:57.981Z,25.97
2018-09-01T02:00:26.617Z,26.90
2018-09-01T02:02:55.269Z,26.13
2018-09-01T02:05:30.303Z,28.00
2018-09-01T02:07:58.934Z,30.90
2018-09-01T02:10:34.090Z,31.67
2018-09-01T02:13:02.852Z,28.47
2018-09-01T02:15:31.462Z,24.73
2018-09-01T02:18:00.000Z,26.07
2018-09-01T02:20:28.584Z,29.03
2018-09-01T02:22:57.328Z,26.33
2018-09-01T02:25:25.904Z,27.03
2018-09-01T02:27:54.720Z,29.60
2018-09-01T02:30:23.358Z,24.93
2018-09-01T02:32:52.191Z,26.73
2018-09-01T02:35:20.794Z,30.93
2018-09-01T02:37:49.319Z,28.60
2018-09-01T02:40:18.082Z,27.47
2018-09-01T02:42:47.090Z,25.73
2018-09-01T02:45:15.532Z,29.20
2018-09-01T02:47:43.976Z,25.87
2018-09-01T02:50:12.458Z,26.30
2018-09-01T02:52:40.879Z,25.47
2018-09-01T02:55:09.345Z,29.67
2018-09-01T02:57:37.780Z,30.70
2018-09-01T03:00:11.711Z,28.10
2018-09-01T03:02:44.989Z,27.63
2018-09-01T03:05:15.023Z,31.40
2018-09-01T03:07:43.466Z,29.10
2018-09-01T03:10:11.925Z,30.63
2018-09-01T03:12:40.349Z,30.10
2018-09-01T03:15:08.859Z,33.87
2018-09-01T03:17:37.295Z,31.63
2018-09-01T03:20:05.918Z,33.70
2018-09-01T03:22:34.333Z,27.83
2018-09-01T03:25:02.785Z,32.20
2018-09-01T03:27:31.229Z,29.97
2018-09-01T03:29:59.707Z,28.50
2018-09-01T03:32:28.155Z,32.70
2018-09-01T03:34:56.591Z,30.57
2018-09-01T03:37:25.021Z,31.93
2018-09-01T03:39:53.480Z,34.50
2018-09-01T03:42:21.969Z,35.57
2018-09-01T03:44:50.420Z,32.00
2018-09-01T03:47:18.860Z,28.00
2018-09-01T03:49:47.338Z,28.93
2018-09-01T03:52:15.750Z,30.80
2018-09-01T03:54:44.220Z,30.53
2018-09-01T03:57:12.666Z,33.20
2018-09-01T03:59:41.097Z,33.07
2018-09-01T04:02:09.555Z,36.47
2018-09-01T04:04:37.982Z,37.50
2018-09-01T04:07:06.465Z,33.17
2018-09-01T04:09:34.906Z,41.97
2018-09-01T04:12:03.348Z,40.07
2018-09-01T04:14:31.866Z,33.87
2018-09-01T04:17:00.358Z,32.43
2018-09-01T04:19:28.934Z,36.83
2018-09-01T04:21:57.410Z,40.63
2018-09-01T04:24:25.850Z,36.80
2018-09-01T04:26:54.416Z,37.90
2018-09-01T04:29:22.894Z,34.10
2018-09-01T04:31:51.391Z,39.57
2018-09-01T04:34:19.881Z,34.03
2018-09-01T04:36:48.336Z,32.43
2018-09-01T04:39:16.820Z,31.90
2018-09-01T04:41:45.304Z,25.80
2018-09-01T04:44:13.783Z,36.57
2018-09-01T04:46:42.317Z,36.00
2018-09-01T04:49:10.740Z,35.83
2018-09-01T04:51:39.218Z,41.67
2018-09-01T04:54:07.674Z,36.60
2018-09-01T04:56:36.114Z,38.37
2018-09-01T04:59:04.586Z,36.70
2018-09-01T05:01:33.044Z,37.63
2018-09-01T05:04:01.980Z,35.33
2018-09-01T05:06:31.398Z,38.53
2018-09-01T05:09:02.453Z,33.40
2018-09-01T05:11:31.132Z,32.73
2018-09-01T05:13:59.567Z,32.17
2018-09-01T05:16:28.099Z,34.57
2018-09-01T05:18:56.577Z,37.93
2018-09-01T05:21:25.853Z,31.00
2018-09-01T05:23:54.312Z,36.37
2018-09-01T05:26:22.813Z,37.40
2018-09-01T05:28:51.261Z,35.13
2018-09-01T05:31:19.706Z,36.37
2018-09-01T05:33:48.239Z,33.30
2018-09-01T05:36:16.711Z,32.10
2018-09-01T05:38:45.171Z,39.20
2018-09-01T05:41:13.633Z,38.10
2018-09-01T05:43:42.176Z,36.83
2018-09-01T05:46:10.607Z,36.47
2018-09-01T05:48:39.077Z,35.37
2018-09-01T05:51:07.572Z,32.27
2018-09-01T05:53:36.045Z,40.73
2018-09-01T05:56:04.525Z,46.20
2018-09-01T05:58:33.079Z,36.20
2018-09-01T06:01:01.585Z,36.90
2018-09-01T06:03:30.142Z,39.37
2018-09-01T06:05:58.651Z,41.30
2018-09-01T06:08:27.110Z,45.40
2018-09-01T06:10:55.617Z,38.00
2018-09-01T06:13:24.067Z,37.90
2018-09-01T06:15:52.626Z,38.40
2018-09-01T06:18:21.132Z,37.70
2018-09-01T06:20:49.737Z,34.80
2018-09-01T06:23:18.230Z,41.73
2018-09-01T06:25:46.764Z,38.47
2018-09-01T06:28:34.000Z,38.57
2018-09-01T06:31:02.554Z,42.10
2018-09-01T06:33:31.099Z,37.90
2018-09-01T06:35:59.572Z,50.30
2018-09-01T06:38:28.160Z,39.47
2018-09-01T06:40:56.698Z,33.83
2018-09-01T06:43:25.209Z,40.70
2018-09-01T06:45:53.708Z,37.23
2018-09-01T06:48:22.171Z,35.57
2018-09-01T06:50:50.772Z,40.67
2018-09-01T06:53:19.314Z,32.43
2018-09-01T06:55:47.814Z,41.57
2018-09-01T06:58:16.307Z,37.77
2018-09-01T07:00:44.807Z,32.83
2018-09-01T07:03:13.323Z,38.27
2018-09-01T07:05:41.783Z,35.77
2018-09-01T07:08:10.295Z,30.70
2018-09-01T07:10:38.859Z,30.10
2018-09-01T07:13:07.371Z,25.93
2018-09-01T07:15:36.731Z,29.50
2018-09-01T07:18:05.361Z,32.57
2018-09-01T07:20:33.906Z,31.70
2018-09-01T07:23:02.411Z,34.13
2018-09-01T07:25:30.957Z,28.37
2018-09-01T07:27:59.467Z,30.70
2018-09-01T07:30:28.117Z,32.70
2018-09-01T07:32:57.261Z,26.70
2018-09-01T07:35:25.773Z,28.93
2018-09-01T07:37:54.321Z,29.03
2018-09-01T07:40:22.931Z,18.20
2018-09-01T07:42:51.499Z,23.47
2018-09-01T07:45:20.081Z,21.90
2018-09-01T07:47:48.631Z,22.63
2018-09-01T07:50:17.212Z,21.40
2018-09-01T07:52:45.765Z,22.83
2018-09-01T07:55:14.279Z,20.40
2018-09-01T07:57:42.849Z,22.97
2018-09-01T08:00:11.443Z,20.60
2018-09-01T08:02:40.083Z,19.77
2018-09-01T08:05:08.977Z,20.27
2018-09-01T08:07:37.757Z,18.67
2018-09-01T08:10:06.962Z,20.07
2018-09-01T08:12:35.459Z,21.37
2018-09-01T08:15:04.004Z,20.67
2018-09-01T08:17:32.477Z,22.00
2018-09-01T08:20:01.162Z,17.43
2018-09-01T08:22:29.708Z,19.67
2018-09-01T08:24:58.214Z,19.27
2018-09-01T08:27:26.806Z,19.70
2018-09-01T08:29:55.350Z,17.03
2018-09-01T08:32:23.866Z,16.80
2018-09-01T08:34:52.436Z,15.90
2018-09-01T08:37:20.910Z,18.63
2018-09-01T08:39:49.470Z,18.10
2018-09-01T08:42:17.983Z,14.27
2018-09-01T08:44:46.483Z,18.53
2018-09-01T08:47:14.996Z,21.00
2018-09-01T08:49:43.523Z,19.77
2018-09-01T08:52:11.986Z,16.20
2018-09-01T08:54:40.761Z,15.80
2018-09-01T08:57:09.236Z,16.63
2018-09-01T08:59:37.674Z,14.20
2018-09-01T09:02:06.154Z,13.90
2018-09-01T09:04:34.824Z,18.63
2018-09-01T09:07:03.324Z,17.03
2018-09-01T09:09:31.902Z,13.53
2018-09-01T09:12:00.349Z,13.50
2018-09-01T09:14:28.839Z,14.63
2018-09-01T09:16:57.367Z,17.77
2018-09-01T09:19:25.856Z,16.27
2018-09-01T09:21:54.337Z,12.23
2018-09-01T09:24:22.817Z,14.03
2018-09-01T09:26:51.268Z,17.93
2018-09-01T09:29:19.717Z,12.57
2018-09-01T09:31:48.149Z,13.37
2018-09-01T09:34:16.578Z,11.57
2018-09-01T09:36:45.033Z,14.23
2018-09-01T09:39:13.511Z,13.17
2018-09-01T09:41:42.003Z,9.90
2018-09-01T09:44:10.468Z,10.07
2018-09-01T09:46:38.936Z,13.80
2018-09-01T09:49:07.486Z,13.10
2018-09-01T09:51:35.979Z,13.53
2018-09-01T09:54:04.432Z,13.30
2018-09-01T09:56:32.920Z,20.23
2018-09-01T09:59:01.414Z,13.67
2018-09-01T10:01:38.657Z,15.13
2018-09-01T10:04:07.668Z,13.33
2018-09-01T10:06:36.732Z,12.73
2018-09-01T10:09:07.596Z,10.30
2018-09-01T10:11:36.136Z,11.30
2018-09-01T10:14:04.624Z,14.70
2018-09-01T10:16:33.060Z,10.93
2018-09-01T10:19:01.520Z,10.07
2018-09-01T10:21:29.945Z,12.70
2018-09-01T10:23:58.408Z,9.80
2018-09-01T10:26:26.891Z,13.30
2018-09-01T10:28:55.368Z,9.90
2018-09-01T10:31:23.845Z,11.13
2018-09-01T10:33:52.337Z,8.07
2018-09-01T10:36:20.788Z,10.67
2018-09-01T10:38:49.244Z,10.83
2018-09-01T10:41:17.769Z,9.27
2018-09-01T10:43:46.223Z,8.40
2018-09-01T10:46:14.773Z,7.33
2018-09-01T10:48:43.825Z,5.33
2018-09-01T10:51:12.355Z,8.80
2018-09-01T10:53:40.887Z,5.73
2018-09-01T10:56:09.455Z,9.80
2018-09-01T10:58:37.953Z,10.30
2018-09-01T11:01:06.583Z,10.10
2018-09-01T11:03:35.211Z,8.40
2018-09-01T11:06:03.657Z,8.17
2018-09-01T11:08:32.140Z,8.53
2018-09-01T11:11:00.641Z,9.60
2018-09-01T11:13:29.118Z,10.53
2018-09-01T11:15:57.556Z,8.90
2018-09-01T11:18:26.022Z,12.27
2018-09-01T11:20:54.773Z,11.03
2018-09-01T11:23:23.170Z,10.00
2018-09-01T11:25:51.720Z,9.87
2018-09-01T11:28:20.184Z,11.90
2018-09-01T11:30:48.650Z,11.80
2018-09-01T11:33:17.120Z,9.48
2018-09-01T11:35:45.656Z,11.70
2018-09-01T11:38:14.122Z,14.63
2018-09-01T11:40:42.591Z,15.73
2018-09-01T11:43:11.219Z,10.47
2018-09-01T11:45:39.625Z,7.05
2018-09-01T11:48:08.086Z,9.37
2018-09-01T11:50:36.580Z,9.13
2018-09-01T11:53:05.108Z,9.50
2018-09-01T11:55:33.567Z,7.60
2018-09-01T11:58:02.031Z,11.05
2018-09-01T12:00:38.814Z,9.58
2018-09-01T12:03:07.432Z,8.73
2018-09-01T12:05:35.940Z,6.97
2018-09-01T12:08:04.475Z,10.88
2018-09-01T12:10:32.939Z,8.35
2018-09-01T12:13:01.412Z,8.38
2018-09-01T12:15:29.885Z,7.12
2018-09-01T12:17:58.438Z,10.63
2018-09-01T12:20:26.955Z,6.83
2018-09-01T12:22:55.380Z,6.43
2018-09-01T12:25:23.865Z,7.58
2018-09-01T12:27:52.382Z,7.27
2018-09-01T12:30:23.708Z,8.87
2018-09-01T12:32:52.229Z,10.83
2018-09-01T12:35:20.836Z,6.55
2018-09-01T12:37:49.226Z,7.42
2018-09-01T12:40:17.699Z,7.97
2018-09-01T12:42:46.160Z,4.53
2018-09-01T12:45:14.631Z,7.87
2018-09-01T12:47:43.040Z,5.57
2018-09-01T12:50:11.475Z,5.83
2018-09-01T12:52:39.968Z,6.20
2018-09-01T12:55:08.456Z,7.58
2018-09-01T12:57:36.940Z,7.22
2018-09-01T13:00:05.750Z,11.68
2018-09-01T13:02:34.273Z,7.30
2018-09-01T13:05:02.731Z,5.75
2018-09-01T13:07:31.162Z,7.83
2018-09-01T13:09:59.689Z,12.23
2018-09-01T13:12:28.127Z,9.50
2018-09-01T13:14:56.575Z,6.55
2018-09-01T13:17:25.003Z,9.80
2018-09-01T13:19:53.453Z,7.65
2018-09-01T13:22:21.903Z,5.83
2018-09-01T13:24:50.388Z,6.28
2018-09-01T13:27:18.827Z,9.53
2018-09-01T13:29:47.284Z,7.00
2018-09-01T13:32:15.750Z,5.60
2018-09-01T13:34:44.236Z,10.85
2018-09-01T13:37:12.692Z,9.40
2018-09-01T13:39:41.129Z,10.80
2018-09-01T13:42:09.579Z,8.05
2018-09-01T13:44:38.073Z,6.28
2018-09-01T13:47:06.562Z,6.37
2018-09-01T13:49:35.065Z,6.50
2018-09-01T13:52:03.540Z,10.13
2018-09-01T13:54:31.991Z,11.73
2018-09-01T13:57:00.452Z,8.75
2018-09-01T13:59:28.991Z,7.95
2018-09-01T14:01:57.441Z,9.18
2018-09-01T14:04:25.911Z,9.33
2018-09-01T14:06:54.404Z,6.58
2018-09-01T14:09:22.877Z,6.87
2018-09-01T14:11:51.333Z,7.33
2018-09-01T14:14:19.832Z,9.50
2018-09-01T14:16:48.283Z,8.48
2018-09-01T14:19:16.763Z,7.78
2018-09-01T14:21:45.349Z,5.37
2018-09-01T14:24:13.905Z,10.35
2018-09-01T14:26:42.445Z,7.87
2018-09-01T14:29:10.887Z,7.72
2018-09-01T14:31:39.363Z,8.40
2018-09-01T14:34:07.892Z,8.88
2018-09-01T14:36:36.562Z,9.05
2018-09-01T14:39:07.299Z,12.98
2018-09-01T14:41:35.773Z,10.05
2018-09-01T14:44:04.297Z,10.63
2018-09-01T14:46:32.822Z,9.68
2018-09-01T14:49:01.393Z,10.28
2018-09-01T14:51:29.917Z,8.10
2018-09-01T14:53:58.393Z,6.72
2018-09-01T14:56:26.929Z,8.85
2018-09-01T14:58:55.411Z,10.53
2018-09-01T15:01:23.896Z,8.43
2018-09-01T15:06:27.094Z,10.33
2018-09-01T15:08:55.553Z,11.00
2018-09-01T15:11:24.019Z,14.73
2018-09-01T15:13:52.486Z,13.17
2018-09-01T15:16:20.990Z,10.97
2018-09-01T15:18:49.470Z,10.67
2018-09-01T15:21:18.032Z,15.23
2018-09-01T15:23:46.476Z,10.83
2018-09-01T15:26:14.996Z,10.90
2018-09-01T15:28:43.432Z,10.37
2018-09-01T15:31:11.902Z,10.30
2018-09-01T15:33:40.373Z,11.07
2018-09-01T15:36:08.844Z,10.67
2018-09-01T15:38:37.351Z,9.50
2018-09-01T15:41:05.876Z,10.70
2018-09-01T15:43:34.369Z,10.97
2018-09-01T15:46:02.848Z,10.00
2018-09-01T15:48:31.301Z,8.63
2018-09-01T15:50:59.850Z,10.57
2018-09-01T15:53:29.015Z,10.93
2018-09-01T15:55:58.129Z,12.87
2018-09-01T15:58:26.618Z,11.90
2018-09-01T16:00:55.104Z,10.47
2018-09-01T16:03:23.653Z,10.30
2018-09-01T16:05:52.195Z,10.70
2018-09-01T16:08:20.750Z,10.93
2018-09-01T16:10:49.272Z,10.20
2018-09-01T16:13:17.805Z,10.13
2018-09-01T16:15:46.336Z,7.13
2018-09-01T16:18:14.863Z,14.43
2018-09-01T16:20:43.347Z,11.00
2018-09-01T16:23:11.959Z,10.73
2018-09-01T16:25:40.501Z,10.07
2018-09-01T16:28:09.125Z,11.07
2018-09-01T16:30:37.629Z,11.50
2018-09-01T16:33:06.514Z,11.60
2018-09-01T16:35:35.041Z,10.37
2018-09-01T16:38:03.586Z,14.67
2018-09-01T16:40:32.138Z,12.77
2018-09-01T16:43:00.675Z,10.50
2018-09-01T16:45:29.170Z,12.07
2018-09-01T16:47:57.716Z,12.67
2018-09-01T16:50:26.258Z,13.90
2018-09-01T16:52:54.802Z,16.03
2018-09-01T16:55:23.290Z,12.20
2018-09-01T16:57:51.791Z,16.33
2018-09-01T17:00:20.310Z,23.27
2018-09-01T17:02:48.914Z,18.37
2018-09-01T17:05:17.446Z,19.77
2018-09-01T17:07:45.966Z,23.17
2018-09-01T17:10:14.511Z,21.00
2018-09-01T17:12:42.992Z,24.73
2018-09-01T17:15:11.578Z,20.87
2018-09-01T17:17:40.074Z,26.10
2018-09-01T17:20:08.652Z,27.07
2018-09-01T17:22:37.354Z,20.67
2018-09-01T17:25:06.443Z,25.40
2018-09-01T17:27:35.049Z,25.13
2018-09-01T17:30:03.584Z,26.43
2018-09-01T17:32:32.094Z,22.17
2018-09-01T17:35:00.629Z,25.53
2018-09-01T17:37:29.158Z,26.60
2018-09-01T17:39:57.815Z,19.80
2018-09-01T17:42:26.405Z,23.70
2018-09-01T17:44:54.889Z,23.77
2018-09-01T17:47:23.464Z,21.40
2018-09-01T17:49:51.912Z,25.20
2018-09-01T17:52:20.419Z,25.00
2018-09-01T17:54:48.987Z,26.27
2018-09-01T17:57:17.553Z,27.93
2018-09-01T17:59:46.033Z,30.23
2018-09-01T18:02:14.603Z,26.50
2018-09-01T18:04:43.115Z,21.00
2018-09-01T18:07:11.639Z,21.27
2018-09-01T18:09:40.125Z,22.10
2018-09-01T18:12:08.650Z,21.77
2018-09-01T18:14:37.274Z,23.40
2018-09-01T18:17:05.805Z,28.63
2018-09-01T18:19:34.331Z,21.53
2018-09-01T18:22:02.926Z,20.63
2018-09-01T18:24:31.527Z,24.50
2018-09-01T18:27:00.124Z,27.07
2018-09-01T18:29:28.909Z,25.37
2018-09-01T18:31:58.784Z,23.97
2018-09-01T18:34:33.700Z,26.97
2018-09-01T18:37:02.439Z,30.90
2018-09-01T18:39:31.090Z,26.50
2018-09-01T18:42:02.368Z,26.50
2018-09-01T18:44:31.092Z,25.40
2018-09-01T18:46:59.770Z,22.70
2018-09-01T18:49:35.019Z,26.00
2018-09-01T18:52:03.766Z,25.90
2018-09-01T18:54:32.514Z,30.83
2018-09-01T18:57:01.104Z,27.17
2018-09-01T18:59:31.008Z,28.23
2018-09-01T19:01:59.630Z,27.73
2018-09-01T19:04:28.279Z,23.37
2018-09-01T19:06:58.706Z,27.30
2018-09-01T19:09:29.030Z,26.60
2018-09-01T19:11:57.489Z,31.90
2018-09-01T19:14:25.925Z,29.40
2018-09-01T19:16:54.371Z,25.63
2018-09-01T19:19:22.812Z,26.73
2018-09-01T19:21:51.258Z,25.37
2018-09-01T19:24:19.954Z,26.47
2018-09-01T19:26:48.493Z,29.90
2018-09-01T19:29:16.968Z,29.33
2018-09-01T19:31:45.525Z,25.57
2018-09-01T19:34:13.965Z,27.80
2018-09-01T19:36:42.709Z,28.10
2018-09-01T19:39:12.328Z,27.40
2018-09-01T19:41:41.538Z,29.07
2018-09-01T19:44:09.975Z,28.80
2018-09-01T19:46:38.429Z,28.93
2018-09-01T19:49:07.173Z,31.20
2018-09-01T19:51:35.733Z,29.60
2018-09-01T19:54:04.231Z,29.97
2018-09-01T19:56:32.721Z,28.67
2018-09-01T19:59:01.246Z,29.60
2018-09-01T20:01:29.736Z,28.60
2018-09-01T20:03:58.196Z,28.07
2018-09-01T20:06:26.717Z,33.57
2018-09-01T20:08:55.198Z,30.90
2018-09-01T20:11:23.710Z,29.50
2018-09-01T20:13:52.179Z,28.57
2018-09-01T20:16:20.669Z,28.83
2018-09-01T20:18:49.114Z,31.07
2018-09-01T20:21:17.557Z,32.53
2018-09-01T20:23:46.051Z,30.57
2018-09-01T20:26:14.584Z,28.70
2018-09-01T20:28:43.023Z,28.90
2018-09-01T20:31:11.551Z,28.97
2018-09-01T20:33:39.999Z,32.67
2018-09-01T20:36:13.771Z,28.97
2018-09-01T20:38:42.282Z,29.13
2018-09-01T20:41:10.777Z,25.30
2018-09-01T20:43:39.291Z,25.00
2018-09-01T20:46:07.946Z,27.77
2018-09-01T20:48:36.398Z,25.07
2018-09-01T20:51:04.875Z,23.77
2018-09-01T20:53:33.436Z,28.97
2018-09-01T20:56:01.900Z,30.53
2018-09-01T20:58:30.370Z,25.80
2018-09-01T21:00:58.876Z,28.27
2018-09-01T21:03:27.332Z,27.80
2018-09-01T21:05:55.800Z,28.17
2018-09-01T21:08:24.268Z,25.43
2018-09-01T21:10:52.716Z,27.03
2018-09-01T21:13:21.170Z,30.17
2018-09-01T21:15:49.690Z,28.10
2018-09-01T21:18:18.205Z,28.40
2018-09-01T21:20:46.659Z,28.93
2018-09-01T21:23:15.114Z,29.30
2018-09-01T21:25:43.603Z,28.70
2018-09-01T21:28:12.055Z,27.70
2018-09-01T21:30:40.543Z,34.87
2018-09-01T21:33:09.007Z,29.53
2018-09-01T21:35:37.506Z,32.27
2018-09-01T21:38:05.957Z,32.03
2018-09-01T21:40:34.469Z,28.63
2018-09-01T21:43:02.999Z,33.17
2018-09-01T21:45:31.473Z,33.77
2018-09-01T21:47:59.936Z,35.13
2018-09-01T21:50:28.405Z,35.27
2018-09-01T21:52:56.885Z,37.27
2018-09-01T21:55:25.381Z,34.50
2018-09-01T21:57:53.883Z,34.33
2018-09-01T22:00:22.353Z,44.00
2018-09-01T22:02:50.834Z,39.23
2018-09-01T22:05:19.706Z,34.73
2018-09-01T22:07:48.185Z,33.97
2018-09-01T22:10:16.700Z,37.80
2018-09-01T22:12:45.166Z,39.23
2018-09-01T22:15:13.691Z,35.70
2018-09-01T22:17:42.151Z,36.57
2018-09-01T22:20:10.614Z,37.90
2018-09-01T22:22:39.105Z,40.83
2018-09-01T22:25:07.596Z,38.43
2018-09-01T22:27:36.052Z,39.13
2018-09-01T22:30:04.637Z,36.53
2018-09-01T22:32:33.109Z,39.77
2018-09-01T22:35:01.581Z,35.37
2018-09-01T22:37:30.052Z,37.03
2018-09-01T22:39:58.540Z,40.20
2018-09-01T22:42:27.018Z,41.53
2018-09-01T22:44:55.497Z,40.97
2018-09-01T22:47:26.377Z,42.20
2018-09-01T22:49:54.841Z,43.43
2018-09-01T22:52:23.607Z,38.33
2018-09-01T22:54:52.181Z,42.70
2018-09-01T22:57:21.113Z,42.23
2018-09-01T22:59:49.832Z,41.97
2018-09-01T23:02:18.329Z,43.47
2018-09-01T23:04:46.747Z,38.03
2018-09-01T23:07:15.365Z,41.50
2018-09-01T23:09:43.885Z,42.23
2018-09-01T23:12:12.334Z,43.40
2018-09-01T23:14:40.812Z,47.00
2018-09-01T23:17:09.298Z,41.73
2018-09-01T23:19:37.772Z,45.20
2018-09-01T23:22:06.283Z,43.23
2018-09-01T23:24:34.755Z,44.67
2018-09-01T23:27:03.218Z,44.97
2018-09-01T23:29:31.634Z,42.30
2018-09-01T23:32:00.134Z,46.53
2018-09-01T23:34:28.565Z,44.77
2018-09-01T23:36:57.001Z,44.30
2018-09-01T23:39:25.457Z,45.97
2018-09-01T23:41:53.977Z,43.27
2018-09-01T23:44:22.462Z,48.17
2018-09-01T23:46:50.919Z,51.20
2018-09-01T23:49:19.380Z,49.43
2018-09-01T23:51:47.898Z,50.80
2018-09-01T23:54:16.331Z,45.70
2018-09-01T23:56:44.786Z,48.27
2018-09-01T23:59:13.258Z,48.67
